createdAt,value
2023-01-27T00:00:12.762Z,0.42
2023-01-27T00:02:41.083Z,0.28
2023-01-27T00:05:09.416Z,0.31
2023-01-27T00:07:36.886Z,0.39
2023-01-27T00:10:05.735Z,0.47
2023-01-27T00:13:00.655Z,0.44
2023-01-27T00:15:28.164Z,0.49
2023-01-27T00:17:55.600Z,0.45
2023-01-27T00:20:43.668Z,0.50
2023-01-27T00:23:34.060Z,0.27
2023-01-27T00:26:06.408Z,0.27
2023-01-27T00:28:36.143Z,0.43
2023-01-27T00:31:04.241Z,0.33
2023-01-27T00:33:30.713Z,0.39
2023-01-27T00:36:02.982Z,0.27
2023-01-27T00:38:32.000Z,0.31
2023-01-27T00:41:20.472Z,0.52
2023-01-27T00:43:50.740Z,0.39
2023-01-27T00:46:19.498Z,0.35
2023-01-27T00:48:47.632Z,0.29
2023-01-27T00:51:15.428Z,0.24
2023-01-27T00:53:43.257Z,0.10
2023-01-27T00:56:11.137Z,0.33
2023-01-27T00:58:38.691Z,0.36
2023-01-27T01:01:09.306Z,0.27
2023-01-27T01:03:37.471Z,0.40
2023-01-27T01:06:07.680Z,0.33
2023-01-27T01:08:36.948Z,0.18
2023-01-27T01:11:04.627Z,0.41
2023-01-27T01:13:32.366Z,0.38
2023-01-27T01:16:07.855Z,0.13
2023-01-27T01:18:35.463Z,0.14
2023-01-27T01:21:03.167Z,0.19
2023-01-27T01:23:30.581Z,0.27
2023-01-27T01:25:58.601Z,0.32
2023-01-27T01:28:26.453Z,0.27
2023-01-27T01:30:53.959Z,0.28
2023-01-27T01:33:23.105Z,0.32
2023-01-27T01:35:50.497Z,0.68
2023-01-27T01:38:17.877Z,0.67
2023-01-27T01:40:45.643Z,0.55
2023-01-27T01:43:15.616Z,0.50
2023-01-27T01:45:49.433Z,0.52
2023-01-27T01:48:21.782Z,0.30
2023-01-27T01:50:54.503Z,0.37
2023-01-27T01:53:27.225Z,0.44
2023-01-27T01:55:54.890Z,0.51
2023-01-27T01:58:22.370Z,0.41
2023-01-27T02:00:49.741Z,0.62
2023-01-27T02:03:17.396Z,0.71
2023-01-27T02:05:46.090Z,0.52
2023-01-27T02:08:18.681Z,0.52
2023-01-27T02:10:46.545Z,0.59
2023-01-27T02:13:14.013Z,0.58
2023-01-27T02:15:41.522Z,0.60
2023-01-27T02:18:09.289Z,0.51
2023-01-27T02:20:43.864Z,0.26
2023-01-27T02:23:32.795Z,0.45
2023-01-27T02:26:06.316Z,0.28
2023-01-27T02:28:33.857Z,0.26
2023-01-27T02:31:01.311Z,0.27
2023-01-27T02:33:29.404Z,0.43
2023-01-27T02:36:01.968Z,0.31
2023-01-27T02:38:35.138Z,0.42
2023-01-27T02:41:10.127Z,0.50
2023-01-27T02:43:37.521Z,0.44
2023-01-27T02:46:05.102Z,0.65
2023-01-27T02:48:32.512Z,0.43
2023-01-27T02:51:00.544Z,0.54
2023-01-27T02:53:27.950Z,0.52
2023-01-27T02:55:55.309Z,0.59
2023-01-27T02:58:24.024Z,0.58
2023-01-27T03:00:51.434Z,0.62
2023-01-27T03:03:18.837Z,0.16
2023-01-27T03:05:46.567Z,0.33
2023-01-27T03:08:13.962Z,0.48
2023-01-27T03:10:41.354Z,0.44
2023-01-27T03:13:08.725Z,0.33
2023-01-27T03:15:55.491Z,0.52
2023-01-27T03:18:22.927Z,0.39
2023-01-27T03:20:51.268Z,0.46
2023-01-27T03:23:20.564Z,0.41
2023-01-27T03:25:49.351Z,0.40
2023-01-27T03:28:17.084Z,0.53
2023-01-27T03:30:45.910Z,0.55
2023-01-27T03:33:13.333Z,0.42
2023-01-27T03:35:48.469Z,0.38
2023-01-27T03:38:34.977Z,0.50
2023-01-27T03:41:21.763Z,0.49
2023-01-27T03:44:07.199Z,0.40
2023-01-27T03:46:35.936Z,0.33
2023-01-27T03:49:03.397Z,0.41
2023-01-27T03:51:30.767Z,0.46
2023-01-27T03:54:00.862Z,0.62
2023-01-27T03:56:28.287Z,0.52
2023-01-27T03:58:55.684Z,0.43
2023-01-27T04:01:25.079Z,0.32
2023-01-27T04:04:11.743Z,0.33
2023-01-27T04:06:54.091Z,0.27
2023-01-27T04:09:23.361Z,0.30
2023-01-27T04:11:55.979Z,0.46
2023-01-27T04:14:25.597Z,0.45
2023-01-27T04:16:53.888Z,0.38
2023-01-27T04:19:22.637Z,0.31
2023-01-27T04:21:50.089Z,0.34
2023-01-27T04:24:22.453Z,0.27
2023-01-27T04:26:57.473Z,0.27
2023-01-27T04:29:26.514Z,0.46
2023-01-27T04:31:54.568Z,0.39
2023-01-27T04:34:23.301Z,0.47
2023-01-27T04:36:50.719Z,0.32
2023-01-27T04:39:18.989Z,0.29
2023-01-27T04:41:48.921Z,0.34
2023-01-27T04:44:16.921Z,0.39
2023-01-27T04:46:44.197Z,0.41
2023-01-27T04:49:11.722Z,0.34
2023-01-27T04:51:40.453Z,0.35
2023-01-27T04:54:07.961Z,0.20
2023-01-27T04:56:37.300Z,0.37
2023-01-27T04:59:06.955Z,0.34
2023-01-27T05:01:34.650Z,0.43
2023-01-27T05:04:02.269Z,0.34
2023-01-27T05:06:30.090Z,0.34
2023-01-27T05:08:58.831Z,0.27
2023-01-27T05:11:26.510Z,0.31
2023-01-27T05:13:53.932Z,0.27
2023-01-27T05:16:23.497Z,0.22
2023-01-27T05:18:53.029Z,0.29
2023-01-27T05:21:22.113Z,0.40
2023-01-27T05:23:50.319Z,0.41
2023-01-27T05:26:21.733Z,0.39
2023-01-27T05:28:50.532Z,0.57
2023-01-27T05:31:20.187Z,0.49
2023-01-27T05:33:49.687Z,0.50
2023-01-27T05:36:19.189Z,0.45
2023-01-27T05:38:47.123Z,0.35
2023-01-27T05:41:15.103Z,0.54
2023-01-27T05:43:46.610Z,0.47
2023-01-27T05:46:16.004Z,0.46
2023-01-27T05:48:45.628Z,0.40
2023-01-27T05:51:15.280Z,0.33
2023-01-27T05:53:43.126Z,0.34
2023-01-27T05:56:11.618Z,0.51
2023-01-27T05:58:39.094Z,0.46
2023-01-27T06:01:12.525Z,0.34
2023-01-27T06:03:40.724Z,0.41
2023-01-27T06:06:09.666Z,0.50
2023-01-27T06:08:38.137Z,0.41
2023-01-27T06:11:06.507Z,0.43
2023-01-27T06:13:35.756Z,0.41
2023-01-27T06:16:04.019Z,0.47
2023-01-27T06:18:32.832Z,0.34
2023-01-27T06:21:01.159Z,0.27
2023-01-27T06:23:29.007Z,0.33
2023-01-27T06:25:57.775Z,0.32
2023-01-27T06:28:29.723Z,0.39
2023-01-27T06:30:57.744Z,0.26
2023-01-27T06:33:25.161Z,0.49
2023-01-27T06:36:02.348Z,0.37
2023-01-27T06:38:29.709Z,0.45
2023-01-27T06:40:57.160Z,0.39
2023-01-27T06:43:24.596Z,0.33
2023-01-27T06:45:52.828Z,0.44
2023-01-27T06:48:20.713Z,0.39
2023-01-27T06:50:48.003Z,0.46
2023-01-27T06:53:16.805Z,0.27
2023-01-27T06:55:44.818Z,0.32
2023-01-27T06:58:13.030Z,0.29
2023-01-27T07:00:41.915Z,0.18
2023-01-27T07:03:12.211Z,0.06
2023-01-27T07:05:40.727Z,0.09
2023-01-27T07:08:08.255Z,0.19
2023-01-27T07:10:37.071Z,0.17
2023-01-27T07:13:05.840Z,0.23
2023-01-27T07:15:33.590Z,0.30
2023-01-27T07:18:01.179Z,0.40
2023-01-27T07:20:29.584Z,0.60
2023-01-27T07:22:58.012Z,0.66
2023-01-27T07:25:25.550Z,0.60
2023-01-27T07:27:54.622Z,0.70
2023-01-27T07:30:22.227Z,0.66
2023-01-27T07:32:50.455Z,0.49
2023-01-27T07:35:18.515Z,0.50
2023-01-27T07:37:45.838Z,0.47
2023-01-27T07:40:14.690Z,0.49
2023-01-27T07:42:42.635Z,0.44
2023-01-27T07:45:11.847Z,0.41
2023-01-27T07:47:39.955Z,0.31
2023-01-27T07:50:08.334Z,0.32
2023-01-27T07:52:35.690Z,0.35
2023-01-27T07:55:03.041Z,0.50
2023-01-27T07:57:30.419Z,0.46
2023-01-27T07:59:57.773Z,0.42
2023-01-27T08:02:28.277Z,0.49
2023-01-27T08:04:55.664Z,0.36
2023-01-27T08:07:23.807Z,0.61
2023-01-27T08:09:51.216Z,0.62
2023-01-27T08:12:18.559Z,0.75
2023-01-27T08:14:45.947Z,0.70
2023-01-27T08:17:13.296Z,0.60
2023-01-27T08:19:41.969Z,0.65
2023-01-27T08:22:09.352Z,0.59
2023-01-27T08:24:36.765Z,0.47
2023-01-27T08:27:06.412Z,0.51
2023-01-27T08:29:35.449Z,0.42
2023-01-27T08:32:02.811Z,0.36
2023-01-27T08:34:30.234Z,0.43
2023-01-27T08:36:58.930Z,0.37
2023-01-27T08:39:27.425Z,0.44
2023-01-27T08:41:54.826Z,0.41
2023-01-27T08:44:22.705Z,0.37
2023-01-27T08:46:50.361Z,0.45
2023-01-27T08:49:17.757Z,0.34
2023-01-27T08:51:45.132Z,0.32
2023-01-27T08:54:13.859Z,0.42
2023-01-27T08:56:41.230Z,0.45
2023-01-27T08:59:08.607Z,0.62
2023-01-27T09:01:36.047Z,0.47
2023-01-27T09:04:03.493Z,0.53
2023-01-27T09:06:31.323Z,0.42
2023-01-27T09:09:12.695Z,0.54
2023-01-27T09:11:44.711Z,0.40
2023-01-27T09:14:12.522Z,0.47
2023-01-27T09:16:39.968Z,0.56
2023-01-27T09:19:07.459Z,0.53
2023-01-27T09:21:34.859Z,0.63
2023-01-27T09:24:02.382Z,0.63
2023-01-27T09:26:29.795Z,0.62
2023-01-27T09:28:58.501Z,0.65
2023-01-27T09:31:25.984Z,0.63
2023-01-27T09:33:53.375Z,0.59
2023-01-27T09:36:22.412Z,0.58
2023-01-27T09:38:55.410Z,0.62
2023-01-27T09:41:43.837Z,0.63
2023-01-27T09:44:27.920Z,0.69
2023-01-27T09:47:14.145Z,0.51
2023-01-27T09:49:58.076Z,0.54
2023-01-27T09:52:47.925Z,0.67
2023-01-27T09:55:20.402Z,0.69
2023-01-27T09:57:57.986Z,0.75
2023-01-27T10:00:38.392Z,0.75
2023-01-27T10:03:27.138Z,0.73
2023-01-27T10:06:24.118Z,0.80
2023-01-27T10:09:11.741Z,0.85
2023-01-27T10:11:48.936Z,0.86
2023-01-27T10:14:27.972Z,0.67
2023-01-27T10:17:21.119Z,0.72
2023-01-27T10:20:02.928Z,0.84
2023-01-27T10:22:39.488Z,0.86
2023-01-27T10:25:21.867Z,0.67
2023-01-27T10:27:55.626Z,0.59
2023-01-27T10:30:30.049Z,0.78
2023-01-27T10:33:05.230Z,0.80
2023-01-27T10:35:38.128Z,0.86
2023-01-27T10:38:12.420Z,0.74
2023-01-27T10:40:49.415Z,0.82
2023-01-27T10:43:24.746Z,0.97
2023-01-27T10:45:57.559Z,0.92
2023-01-27T10:48:37.019Z,0.86
2023-01-27T10:51:10.091Z,0.78
2023-01-27T10:53:48.620Z,0.87
2023-01-27T10:56:24.680Z,0.81
2023-01-27T10:58:59.057Z,0.93
2023-01-27T11:01:33.999Z,0.94
2023-01-27T11:04:09.120Z,0.94
2023-01-27T11:06:40.440Z,0.72
2023-01-27T11:09:17.584Z,0.82
2023-01-27T11:11:46.362Z,0.84
2023-01-27T11:14:20.027Z,0.86
2023-01-27T11:16:50.475Z,0.86
2023-01-27T11:19:27.177Z,1.03
2023-01-27T11:22:07.140Z,0.92
2023-01-27T11:24:44.707Z,1.03
2023-01-27T11:27:19.304Z,1.02
2023-01-27T11:29:53.499Z,1.02
2023-01-27T11:32:31.829Z,1.10
2023-01-27T11:35:04.586Z,1.10
2023-01-27T11:37:35.412Z,0.93
2023-01-27T11:40:03.708Z,0.85
2023-01-27T11:42:34.461Z,1.01
2023-01-27T11:45:02.514Z,0.92
2023-01-27T11:47:33.409Z,1.00
2023-01-27T11:50:04.457Z,0.93
2023-01-27T11:52:32.614Z,0.97
2023-01-27T11:55:06.712Z,0.99
2023-01-27T11:57:36.861Z,1.08
2023-01-27T12:00:08.248Z,1.15
2023-01-27T12:02:39.344Z,1.13
2023-01-27T12:05:12.568Z,1.14
2023-01-27T12:07:46.669Z,1.09
2023-01-27T12:10:27.932Z,1.11
2023-01-27T12:12:55.993Z,0.92
2023-01-27T12:15:27.146Z,1.08
2023-01-27T12:17:59.520Z,1.14
2023-01-27T12:20:36.420Z,0.98
2023-01-27T12:23:15.080Z,1.16
2023-01-27T12:25:45.798Z,1.23
2023-01-27T12:28:28.075Z,1.06
2023-01-27T12:30:58.558Z,0.95
2023-01-27T12:33:30.952Z,1.15
2023-01-27T12:36:01.320Z,1.10
2023-01-27T12:38:35.309Z,1.18
2023-01-27T12:41:05.364Z,1.21
2023-01-27T12:43:33.165Z,1.16
2023-01-27T12:46:07.286Z,1.29
2023-01-27T12:48:36.286Z,1.21
2023-01-27T12:51:16.857Z,1.31
2023-01-27T12:53:44.695Z,1.42
2023-01-27T12:56:15.524Z,1.30
2023-01-27T12:58:45.041Z,1.42
2023-01-27T13:01:30.586Z,1.36
2023-01-27T13:04:01.015Z,1.48
2023-01-27T13:06:35.167Z,1.51
2023-01-27T13:09:03.818Z,1.58
2023-01-27T13:11:37.215Z,1.55
2023-01-27T13:14:08.685Z,1.63
2023-01-27T13:16:36.615Z,1.59
2023-01-27T13:19:03.978Z,1.49
2023-01-27T13:21:38.095Z,1.57
2023-01-27T13:24:14.547Z,1.72
2023-01-27T13:26:42.716Z,1.61
2023-01-27T13:29:15.412Z,1.73
2023-01-27T13:31:49.174Z,1.66
2023-01-27T13:34:25.571Z,1.63
2023-01-27T13:36:57.588Z,1.74
2023-01-27T13:39:35.833Z,1.59
2023-01-27T13:42:13.315Z,1.61
2023-01-27T13:44:46.478Z,1.67
2023-01-27T13:47:19.761Z,1.59
2023-01-27T13:49:51.484Z,1.52
2023-01-27T13:52:20.169Z,1.48
2023-01-27T13:54:47.670Z,1.43
2023-01-27T13:57:32.570Z,1.50
2023-01-27T14:00:10.602Z,1.59
2023-01-27T14:02:52.635Z,1.51
2023-01-27T14:05:32.028Z,1.65
2023-01-27T14:08:19.449Z,1.68
2023-01-27T14:11:03.257Z,1.58
2023-01-27T14:13:46.592Z,1.58
2023-01-27T14:16:19.989Z,1.68
2023-01-27T14:18:51.068Z,1.73
2023-01-27T14:21:39.770Z,1.81
2023-01-27T14:24:24.151Z,1.82
2023-01-27T14:26:56.884Z,1.72
2023-01-27T14:29:34.352Z,1.65
2023-01-27T14:32:10.335Z,1.73
2023-01-27T14:34:56.640Z,1.72
2023-01-27T14:37:31.248Z,1.71
2023-01-27T14:40:14.289Z,1.65
2023-01-27T14:42:46.205Z,1.54
2023-01-27T14:45:21.230Z,1.62
2023-01-27T14:47:58.843Z,1.66
2023-01-27T14:50:34.500Z,1.65
2023-01-27T14:53:27.192Z,1.76
2023-01-27T14:55:59.476Z,1.64
2023-01-27T14:58:43.209Z,1.70
2023-01-27T15:01:21.437Z,1.70
2023-01-27T15:04:11.250Z,1.65
2023-01-27T15:06:47.209Z,1.65
2023-01-27T15:09:27.337Z,1.60
2023-01-27T15:12:12.754Z,1.56
2023-01-27T15:15:07.352Z,1.43
2023-01-27T15:17:46.402Z,1.51
2023-01-27T15:20:41.912Z,1.63
2023-01-27T15:23:28.154Z,1.67
2023-01-27T15:25:59.844Z,1.54
2023-01-27T15:28:31.934Z,1.49
2023-01-27T15:31:24.509Z,1.45
2023-01-27T15:33:57.048Z,1.40
2023-01-27T15:36:33.271Z,1.50
2023-01-27T15:39:02.990Z,1.40
2023-01-27T15:41:30.441Z,1.34
2023-01-27T15:44:15.236Z,1.40
2023-01-27T15:46:45.051Z,1.38
2023-01-27T15:49:20.236Z,1.36
2023-01-27T15:51:50.772Z,1.38
2023-01-27T15:54:21.230Z,1.41
2023-01-27T15:56:50.952Z,1.38
2023-01-27T15:59:23.712Z,1.36
2023-01-27T16:02:02.822Z,1.29
2023-01-27T16:04:33.112Z,1.33
2023-01-27T16:07:03.905Z,1.36
2023-01-27T16:09:37.113Z,1.37
2023-01-27T16:12:27.025Z,1.47
2023-01-27T16:15:33.650Z,1.51
2023-01-27T16:18:03.628Z,1.46
2023-01-27T16:20:33.422Z,1.55
2023-01-27T16:23:04.147Z,1.54
2023-01-27T16:25:40.045Z,1.59
2023-01-27T16:28:16.900Z,1.65
2023-01-27T16:30:50.428Z,1.64
2023-01-27T16:33:23.762Z,1.65
2023-01-27T16:35:54.790Z,1.74
2023-01-27T16:38:26.898Z,1.62
2023-01-27T16:40:57.676Z,1.67
2023-01-27T16:43:31.506Z,1.60
2023-01-27T16:46:01.746Z,1.50
2023-01-27T16:48:34.967Z,1.60
2023-01-27T16:51:14.511Z,1.58
2023-01-27T16:53:46.310Z,1.55
2023-01-27T16:56:24.307Z,1.57
2023-01-27T16:58:52.822Z,1.71
2023-01-27T17:01:26.174Z,1.78
2023-01-27T17:04:04.790Z,1.79
2023-01-27T17:06:38.810Z,1.88
2023-01-27T17:09:19.617Z,1.86
2023-01-27T17:11:47.051Z,2.03
2023-01-27T17:14:29.965Z,2.02
2023-01-27T17:17:01.986Z,1.98
2023-01-27T17:19:32.176Z,1.98
2023-01-27T17:22:01.952Z,1.93
2023-01-27T17:24:31.308Z,1.84
2023-01-27T17:27:04.107Z,1.97
2023-01-27T17:29:35.996Z,1.96
2023-01-27T17:32:14.952Z,1.95
2023-01-27T17:34:42.541Z,1.97
2023-01-27T17:37:17.066Z,1.97
2023-01-27T17:39:45.673Z,1.81
2023-01-27T17:42:18.009Z,1.86
2023-01-27T17:44:45.452Z,1.86
2023-01-27T17:47:16.271Z,1.93
2023-01-27T17:49:45.417Z,1.96
2023-01-27T17:52:20.859Z,1.79
2023-01-27T17:54:49.720Z,1.91
2023-01-27T17:57:21.437Z,1.82
2023-01-27T17:59:58.987Z,1.71
2023-01-27T18:02:33.527Z,1.81
2023-01-27T18:05:05.343Z,1.88
2023-01-27T18:07:33.789Z,1.91
2023-01-27T18:10:01.178Z,1.82
2023-01-27T18:12:33.318Z,1.77
2023-01-27T18:15:33.454Z,1.82
2023-01-27T18:18:04.144Z,1.97
2023-01-27T18:20:34.305Z,1.82
2023-01-27T18:23:07.607Z,1.88
2023-01-27T18:25:35.104Z,1.86
2023-01-27T18:28:02.810Z,1.95
2023-01-27T18:30:30.222Z,2.01
2023-01-27T18:33:06.670Z,1.94
2023-01-27T18:35:34.950Z,1.83
2023-01-27T18:38:04.459Z,1.80
2023-01-27T18:40:34.004Z,1.78
2023-01-27T18:43:03.240Z,1.88
2023-01-27T18:45:30.981Z,1.94
2023-01-27T18:47:59.516Z,1.99
2023-01-27T18:50:28.382Z,1.99
2023-01-27T18:52:56.204Z,1.94
2023-01-27T18:55:25.459Z,1.83
2023-01-27T18:57:54.801Z,1.95
2023-01-27T19:00:24.722Z,1.96
2023-01-27T19:02:54.482Z,1.96
2023-01-27T19:05:23.785Z,2.04
2023-01-27T19:07:52.513Z,1.99
2023-01-27T19:10:24.791Z,2.01
2023-01-27T19:12:52.298Z,2.05
2023-01-27T19:15:23.749Z,1.99
2023-01-27T19:17:52.767Z,2.02
2023-01-27T19:20:21.962Z,2.05
2023-01-27T19:22:52.586Z,2.00
2023-01-27T19:25:20.884Z,1.93
2023-01-27T19:27:51.405Z,2.00
2023-01-27T19:30:27.331Z,1.98
2023-01-27T19:32:56.002Z,2.00
2023-01-27T19:35:24.045Z,2.03
2023-01-27T19:37:53.381Z,1.96
2023-01-27T19:40:23.730Z,1.93
2023-01-27T19:42:51.290Z,2.01
2023-01-27T19:45:20.203Z,1.87
2023-01-27T19:47:49.402Z,1.96
2023-01-27T19:50:19.876Z,2.03
2023-01-27T19:52:47.674Z,2.06
2023-01-27T19:55:16.851Z,2.03
2023-01-27T19:57:45.249Z,1.99
2023-01-27T20:00:23.050Z,1.92
2023-01-27T20:02:50.671Z,2.06
2023-01-27T20:05:18.755Z,2.00
2023-01-27T20:07:46.658Z,2.14
2023-01-27T20:10:19.182Z,2.06
2023-01-27T20:12:54.263Z,2.06
2023-01-27T20:15:24.209Z,2.07
2023-01-27T20:17:52.653Z,1.97
2023-01-27T20:20:21.470Z,2.00
2023-01-27T20:22:48.916Z,2.07
2023-01-27T20:25:19.620Z,2.07
2023-01-27T20:27:49.869Z,2.06
2023-01-27T20:30:19.447Z,2.02
2023-01-27T20:32:47.651Z,2.02
2023-01-27T20:35:17.767Z,2.09
2023-01-27T20:37:47.801Z,2.10
2023-01-27T20:40:16.842Z,2.03
2023-01-27T20:42:45.795Z,2.07
2023-01-27T20:45:13.906Z,2.08
2023-01-27T20:47:42.125Z,1.99
2023-01-27T20:50:10.437Z,2.06
2023-01-27T20:52:38.545Z,2.07
2023-01-27T20:55:06.902Z,2.05
2023-01-27T20:57:35.176Z,2.03
2023-01-27T21:00:04.594Z,2.05
2023-01-27T21:02:32.034Z,1.99
2023-01-27T21:04:59.679Z,1.97
2023-01-27T21:07:27.411Z,2.04
2023-01-27T21:09:55.081Z,2.02
2023-01-27T21:12:22.572Z,2.04
2023-01-27T21:14:49.957Z,2.02
2023-01-27T21:17:18.627Z,1.93
2023-01-27T21:19:45.998Z,1.94
2023-01-27T21:22:13.366Z,1.92
2023-01-27T21:24:40.766Z,2.08
2023-01-27T21:27:08.179Z,2.13
2023-01-27T21:29:36.231Z,2.08
2023-01-27T21:32:03.657Z,2.00
2023-01-27T21:34:32.765Z,2.03
2023-01-27T21:37:00.153Z,2.16
2023-01-27T21:39:27.530Z,2.13
2023-01-27T21:42:12.411Z,2.19
2023-01-27T21:44:57.202Z,2.01
2023-01-27T21:47:24.664Z,2.13
2023-01-27T21:50:02.352Z,2.10
2023-01-27T21:52:31.605Z,2.18
2023-01-27T21:54:59.065Z,2.13
2023-01-27T21:57:26.452Z,2.11
2023-01-27T21:59:53.814Z,2.04
2023-01-27T22:02:21.489Z,2.02
2023-01-27T22:04:48.894Z,2.06
2023-01-27T22:07:19.354Z,2.07
2023-01-27T22:09:46.918Z,2.07
2023-01-27T22:12:16.205Z,2.03
2023-01-27T22:14:44.120Z,2.00
2023-01-27T22:17:11.716Z,1.96
2023-01-27T22:19:39.785Z,2.09
2023-01-27T22:22:07.796Z,2.06
2023-01-27T22:24:36.462Z,2.11
2023-01-27T22:29:55.203Z,2.04
2023-01-27T22:32:22.616Z,2.05
2023-01-27T22:34:50.677Z,2.04
2023-01-27T22:37:18.109Z,2.08
2023-01-27T22:39:46.811Z,2.03
2023-01-27T22:42:14.182Z,1.98
2023-01-27T22:44:41.554Z,2.00
2023-01-27T22:47:08.914Z,2.06
2023-01-27T22:49:36.270Z,2.14
2023-01-27T22:52:03.692Z,2.16
2023-01-27T22:54:31.046Z,2.11
2023-01-27T22:57:01.151Z,2.15
2023-01-27T22:59:28.696Z,2.08
2023-01-27T23:01:56.101Z,2.07
2023-01-27T23:04:23.461Z,2.01
2023-01-27T23:06:50.881Z,2.08
2023-01-27T23:09:18.564Z,2.24
2023-01-27T23:11:45.961Z,2.13
2023-01-27T23:14:14.642Z,2.01
2023-01-27T23:16:42.049Z,1.94
2023-01-27T23:19:09.776Z,1.78
2023-01-27T23:21:37.511Z,1.84
2023-01-27T23:24:07.508Z,1.99
2023-01-27T23:26:35.106Z,1.90
2023-01-27T23:29:02.495Z,1.79
2023-01-27T23:31:31.565Z,1.71
2023-01-27T23:33:58.974Z,1.76
2023-01-27T23:36:26.993Z,1.82
2023-01-27T23:38:54.257Z,1.83
2023-01-27T23:41:21.779Z,1.80
2023-01-27T23:43:52.113Z,1.79
2023-01-27T23:46:20.062Z,1.83
2023-01-27T23:48:51.359Z,1.94
2023-01-27T23:51:19.832Z,1.82
2023-01-27T23:53:48.006Z,1.83
2023-01-27T23:56:17.795Z,1.80
2023-01-27T23:58:46.480Z,1.81
